sensor_id;sensor_type;location;lat;lon;timestamp;temperature;humidity
37340;DHT22;23223;51.006;7.610;2024-03-22T00:00:44;8.00;99.90
37340;DHT22;23223;51.006;7.610;2024-03-22T00:03:10;7.90;99.90
37340;DHT22;23223;51.006;7.610;2024-03-22T00:05:36;7.90;99.90
37340;DHT22;23223;51.006;7.610;2024-03-22T00:08:02;7.90;99.90
37340;DHT22;23223;51.006;7.610;2024-03-22T00:10:27;7.80;99.90
37340;DHT22;23223;51.006;7.610;2024-03-22T00:12:53;7.70;99.90
37340;DHT22;23223;51.006;7.610;2024-03-22T00:15:18;7.60;99.90
37340;DHT22;23223;51.006;7.610;2024-03-22T00:17:45;7.60;99.90
37340;DHT22;23223;51.006;7.610;2024-03-22T00:20:10;7.60;99.90
37340;DHT22;23223;51.006;7.610;2024-03-22T00:22:36;7.60;99.90
37340;DHT22;23223;51.006;7.610;2024-03-22T00:25:02;7.70;99.90
37340;DHT22;23223;51.006;7.610;2024-03-22T00:27:28;7.60;99.90
37340;DHT22;23223;51.006;7.610;2024-03-22T00:29:53;7.50;99.90
37340;DHT22;23223;51.006;7.610;2024-03-22T00:32:19;7.40;99.90
37340;DHT22;23223;51.006;7.610;2024-03-22T00:34:44;7.40;99.90
37340;DHT22;23223;51.006;7.610;2024-03-22T00:37:10;7.30;99.90
37340;DHT22;23223;51.006;7.610;2024-03-22T00:39:36;7.50;99.90
37340;DHT22;23223;51.006;7.610;2024-03-22T00:42:01;7.60;99.90
37340;DHT22;23223;51.006;7.610;2024-03-22T00:44:27;7.60;99.90
37340;DHT22;23223;51.006;7.610;2024-03-22T00:46:53;7.50;99.90
37340;DHT22;23223;51.006;7.610;2024-03-22T00:49:18;7.50;99.90
37340;DHT22;23223;51.006;7.610;2024-03-22T00:51:44;7.50;99.90
37340;DHT22;23223;51.006;7.610;2024-03-22T00:54:10;7.40;99.90
37340;DHT22;23223;51.006;7.610;2024-03-22T00:56:36;7.40;99.90
37340;DHT22;23223;51.006;7.610;2024-03-22T00:59:01;7.40;99.90
37340;DHT22;23223;51.006;7.610;2024-03-22T01:01:27;7.30;99.90
37340;DHT22;23223;51.006;7.610;2024-03-22T01:03:53;7.30;99.90
37340;DHT22;23223;51.006;7.610;2024-03-22T01:06:19;7.40;99.90
37340;DHT22;23223;51.006;7.610;2024-03-22T01:08:49;7.60;99.90
37340;DHT22;23223;51.006;7.610;2024-03-22T01:11:14;7.70;99.90
37340;DHT22;23223;51.006;7.610;2024-03-22T01:13:40;7.70;99.90
37340;DHT22;23223;51.006;7.610;2024-03-22T01:16:06;7.70;99.90
37340;DHT22;23223;51.006;7.610;2024-03-22T01:18:35;7.60;99.90
37340;DHT22;23223;51.006;7.610;2024-03-22T01:21:01;7.50;99.90
37340;DHT22;23223;51.006;7.610;2024-03-22T01:23:26;7.40;99.90
37340;DHT22;23223;51.006;7.610;2024-03-22T01:25:52;7.40;99.90
37340;DHT22;23223;51.006;7.610;2024-03-22T01:28:17;7.30;99.90
37340;DHT22;23223;51.006;7.610;2024-03-22T01:30:43;7.30;99.90
37340;DHT22;23223;51.006;7.610;2024-03-22T01:33:09;7.30;99.90
37340;DHT22;23223;51.006;7.610;2024-03-22T01:35:34;7.30;99.90
37340;DHT22;23223;51.006;7.610;2024-03-22T01:38:00;7.40;99.90
37340;DHT22;23223;51.006;7.610;2024-03-22T01:40:25;7.60;99.90
37340;DHT22;23223;51.006;7.610;2024-03-22T01:42:58;7.70;99.90
37340;DHT22;23223;51.006;7.610;2024-03-22T01:45:24;7.80;99.90
37340;DHT22;23223;51.006;7.610;2024-03-22T01:47:53;7.80;99.90
37340;DHT22;23223;51.006;7.610;2024-03-22T01:50:21;7.70;99.90
37340;DHT22;23223;51.006;7.610;2024-03-22T01:52:47;7.60;99.90
37340;DHT22;23223;51.006;7.610;2024-03-22T01:55:13;7.50;99.90
37340;DHT22;23223;51.006;7.610;2024-03-22T01:57:39;7.50;99.90
37340;DHT22;23223;51.006;7.610;2024-03-22T02:00:06;7.40;99.90
37340;DHT22;23223;51.006;7.610;2024-03-22T02:02:34;7.30;99.90
37340;DHT22;23223;51.006;7.610;2024-03-22T02:04:59;7.30;99.90
37340;DHT22;23223;51.006;7.610;2024-03-22T02:07:27;7.20;99.90
37340;DHT22;23223;51.006;7.610;2024-03-22T02:09:55;7.20;99.90
37340;DHT22;23223;51.006;7.610;2024-03-22T02:12:20;7.20;99.90
37340;DHT22;23223;51.006;7.610;2024-03-22T02:14:46;7.20;99.90
37340;DHT22;23223;51.006;7.610;2024-03-22T02:17:11;7.30;99.90
37340;DHT22;23223;51.006;7.610;2024-03-22T02:19:37;7.20;99.90
37340;DHT22;23223;51.006;7.610;2024-03-22T02:22:03;7.30;99.90
37340;DHT22;23223;51.006;7.610;2024-03-22T02:24:28;7.20;99.90
37340;DHT22;23223;51.006;7.610;2024-03-22T02:26:54;7.40;99.90
37340;DHT22;23223;51.006;7.610;2024-03-22T02:29:19;7.60;99.90
37340;DHT22;23223;51.006;7.610;2024-03-22T02:31:45;7.80;99.90
37340;DHT22;23223;51.006;7.610;2024-03-22T02:34:10;7.90;99.90
37340;DHT22;23223;51.006;7.610;2024-03-22T02:36:36;8.00;99.90
37340;DHT22;23223;51.006;7.610;2024-03-22T02:39:01;8.00;99.90
37340;DHT22;23223;51.006;7.610;2024-03-22T02:41:27;7.90;99.90
37340;DHT22;23223;51.006;7.610;2024-03-22T02:43:53;7.70;99.90
37340;DHT22;23223;51.006;7.610;2024-03-22T02:46:18;7.70;99.90
37340;DHT22;23223;51.006;7.610;2024-03-22T02:48:44;7.70;99.90
37340;DHT22;23223;51.006;7.610;2024-03-22T02:51:09;7.80;99.90
37340;DHT22;23223;51.006;7.610;2024-03-22T02:53:35;7.70;99.90
37340;DHT22;23223;51.006;7.610;2024-03-22T02:56:00;7.70;99.90
37340;DHT22;23223;51.006;7.610;2024-03-22T02:58:26;7.60;99.90
37340;DHT22;23223;51.006;7.610;2024-03-22T03:00:52;7.60;99.90
37340;DHT22;23223;51.006;7.610;2024-03-22T03:03:17;7.70;99.90
37340;DHT22;23223;51.006;7.610;2024-03-22T03:05:43;7.70;99.90
37340;DHT22;23223;51.006;7.610;2024-03-22T03:08:09;7.70;99.90
37340;DHT22;23223;51.006;7.610;2024-03-22T03:10:35;7.80;99.90
37340;DHT22;23223;51.006;7.610;2024-03-22T03:13:01;7.60;99.90
37340;DHT22;23223;51.006;7.610;2024-03-22T03:15:26;7.60;99.90
37340;DHT22;23223;51.006;7.610;2024-03-22T03:17:52;7.50;99.90
37340;DHT22;23223;51.006;7.610;2024-03-22T03:20:18;7.60;99.90
37340;DHT22;23223;51.006;7.610;2024-03-22T03:22:43;7.50;99.90
37340;DHT22;23223;51.006;7.610;2024-03-22T03:25:09;7.50;99.90
37340;DHT22;23223;51.006;7.610;2024-03-22T03:27:35;7.50;99.90
37340;DHT22;23223;51.006;7.610;2024-03-22T03:30:01;7.60;99.90
37340;DHT22;23223;51.006;7.610;2024-03-22T03:32:27;7.60;99.90
37340;DHT22;23223;51.006;7.610;2024-03-22T03:34:53;7.60;99.90
37340;DHT22;23223;51.006;7.610;2024-03-22T03:37:19;7.60;99.90
37340;DHT22;23223;51.006;7.610;2024-03-22T03:39:45;7.60;99.90
37340;DHT22;23223;51.006;7.610;2024-03-22T03:42:11;7.60;99.90
37340;DHT22;23223;51.006;7.610;2024-03-22T03:44:36;7.50;99.90
37340;DHT22;23223;51.006;7.610;2024-03-22T03:47:02;7.50;99.90
37340;DHT22;23223;51.006;7.610;2024-03-22T03:49:28;7.40;99.90
37340;DHT22;23223;51.006;7.610;2024-03-22T03:51:53;7.50;99.90
37340;DHT22;23223;51.006;7.610;2024-03-22T03:54:19;7.50;99.90
37340;DHT22;23223;51.006;7.610;2024-03-22T03:56:44;7.50;99.90
37340;DHT22;23223;51.006;7.610;2024-03-22T03:59:10;7.60;99.90
37340;DHT22;23223;51.006;7.610;2024-03-22T04:01:36;7.60;99.90
37340;DHT22;23223;51.006;7.610;2024-03-22T04:04:02;7.60;99.90
37340;DHT22;23223;51.006;7.610;2024-03-22T04:06:28;7.60;99.90
37340;DHT22;23223;51.006;7.610;2024-03-22T04:08:53;7.60;99.90
37340;DHT22;23223;51.006;7.610;2024-03-22T04:11:19;7.70;99.90
37340;DHT22;23223;51.006;7.610;2024-03-22T04:13:45;8.00;99.90
37340;DHT22;23223;51.006;7.610;2024-03-22T04:16:10;8.10;99.90
37340;DHT22;23223;51.006;7.610;2024-03-22T04:18:36;8.00;99.90
37340;DHT22;23223;51.006;7.610;2024-03-22T04:21:02;8.10;99.90
37340;DHT22;23223;51.006;7.610;2024-03-22T04:23:27;8.30;99.90
37340;DHT22;23223;51.006;7.610;2024-03-22T04:25:57;8.60;99.90
37340;DHT22;23223;51.006;7.610;2024-03-22T04:28:24;8.40;99.90
37340;DHT22;23223;51.006;7.610;2024-03-22T04:31:03;8.20;99.90
37340;DHT22;23223;51.006;7.610;2024-03-22T04:33:30;8.00;99.90
37340;DHT22;23223;51.006;7.610;2024-03-22T04:35:57;7.80;99.90
37340;DHT22;23223;51.006;7.610;2024-03-22T04:38:23;7.70;99.90
37340;DHT22;23223;51.006;7.610;2024-03-22T04:40:49;7.60;99.90
37340;DHT22;23223;51.006;7.610;2024-03-22T04:43:15;7.60;99.90
37340;DHT22;23223;51.006;7.610;2024-03-22T04:45:45;7.40;99.90
37340;DHT22;23223;51.006;7.610;2024-03-22T04:48:13;7.40;99.90
37340;DHT22;23223;51.006;7.610;2024-03-22T04:50:39;7.30;99.90
37340;DHT22;23223;51.006;7.610;2024-03-22T04:53:05;7.40;99.90
37340;DHT22;23223;51.006;7.610;2024-03-22T04:55:31;7.40;99.90
37340;DHT22;23223;51.006;7.610;2024-03-22T04:57:58;7.30;99.90
37340;DHT22;23223;51.006;7.610;2024-03-22T05:00:24;7.20;99.90
37340;DHT22;23223;51.006;7.610;2024-03-22T05:02:51;7.20;99.90
37340;DHT22;23223;51.006;7.610;2024-03-22T05:05:16;7.20;99.90
37340;DHT22;23223;51.006;7.610;2024-03-22T05:07:42;7.20;99.90
37340;DHT22;23223;51.006;7.610;2024-03-22T05:10:08;7.20;99.90
37340;DHT22;23223;51.006;7.610;2024-03-22T05:12:34;7.20;99.90
37340;DHT22;23223;51.006;7.610;2024-03-22T05:15:02;7.20;99.90
37340;DHT22;23223;51.006;7.610;2024-03-22T05:17:27;7.20;99.90
37340;DHT22;23223;51.006;7.610;2024-03-22T05:19:54;7.20;99.90
37340;DHT22;23223;51.006;7.610;2024-03-22T05:22:20;7.10;99.90
37340;DHT22;23223;51.006;7.610;2024-03-22T05:24:46;7.20;99.90
37340;DHT22;23223;51.006;7.610;2024-03-22T05:27:11;7.20;99.90
37340;DHT22;23223;51.006;7.610;2024-03-22T05:29:38;7.30;99.90
37340;DHT22;23223;51.006;7.610;2024-03-22T05:32:03;7.30;99.90
37340;DHT22;23223;51.006;7.610;2024-03-22T05:34:29;7.50;99.90
37340;DHT22;23223;51.006;7.610;2024-03-22T05:36:55;7.50;99.90
37340;DHT22;23223;51.006;7.610;2024-03-22T05:39:21;7.40;99.90
37340;DHT22;23223;51.006;7.610;2024-03-22T05:41:46;7.40;99.90
37340;DHT22;23223;51.006;7.610;2024-03-22T05:44:12;7.30;99.90
37340;DHT22;23223;51.006;7.610;2024-03-22T05:46:37;7.30;99.90
37340;DHT22;23223;51.006;7.610;2024-03-22T05:49:03;7.50;99.90
37340;DHT22;23223;51.006;7.610;2024-03-22T05:51:28;7.60;99.90
37340;DHT22;23223;51.006;7.610;2024-03-22T05:53:56;7.90;99.90
37340;DHT22;23223;51.006;7.610;2024-03-22T05:56:22;8.00;99.90
37340;DHT22;23223;51.006;7.610;2024-03-22T05:58:48;8.10;99.90
37340;DHT22;23223;51.006;7.610;2024-03-22T06:01:13;7.90;99.90
37340;DHT22;23223;51.006;7.610;2024-03-22T06:03:39;7.80;99.90
37340;DHT22;23223;51.006;7.610;2024-03-22T06:06:05;7.80;99.90
37340;DHT22;23223;51.006;7.610;2024-03-22T06:08:30;7.90;99.90
37340;DHT22;23223;51.006;7.610;2024-03-22T06:11:05;7.80;99.90
37340;DHT22;23223;51.006;7.610;2024-03-22T06:13:32;7.80;99.90
37340;DHT22;23223;51.006;7.610;2024-03-22T06:15:58;8.00;99.90
37340;DHT22;23223;51.006;7.610;2024-03-22T06:18:24;8.20;99.90
37340;DHT22;23223;51.006;7.610;2024-03-22T06:20:49;8.20;99.90
37340;DHT22;23223;51.006;7.610;2024-03-22T06:23:15;8.20;99.90
37340;DHT22;23223;51.006;7.610;2024-03-22T06:25:40;8.10;99.90
37340;DHT22;23223;51.006;7.610;2024-03-22T06:28:06;8.10;99.90
37340;DHT22;23223;51.006;7.610;2024-03-22T06:30:31;8.00;99.90
37340;DHT22;23223;51.006;7.610;2024-03-22T06:32:57;8.00;99.90
37340;DHT22;23223;51.006;7.610;2024-03-22T06:35:22;8.00;99.90
37340;DHT22;23223;51.006;7.610;2024-03-22T06:37:48;8.20;99.90
37340;DHT22;23223;51.006;7.610;2024-03-22T06:40:15;8.50;99.90
37340;DHT22;23223;51.006;7.610;2024-03-22T06:42:40;8.60;99.90
37340;DHT22;23223;51.006;7.610;2024-03-22T06:45:06;8.60;99.90
37340;DHT22;23223;51.006;7.610;2024-03-22T06:47:32;8.60;99.90
37340;DHT22;23223;51.006;7.610;2024-03-22T06:49:58;8.60;99.90
37340;DHT22;23223;51.006;7.610;2024-03-22T06:52:23;8.70;99.90
37340;DHT22;23223;51.006;7.610;2024-03-22T06:54:49;8.80;99.90
37340;DHT22;23223;51.006;7.610;2024-03-22T06:57:14;8.90;99.90
37340;DHT22;23223;51.006;7.610;2024-03-22T06:59:40;9.20;99.90
37340;DHT22;23223;51.006;7.610;2024-03-22T07:02:06;9.20;99.90
37340;DHT22;23223;51.006;7.610;2024-03-22T07:04:31;9.10;99.90
37340;DHT22;23223;51.006;7.610;2024-03-22T07:06:57;9.00;99.90
37340;DHT22;23223;51.006;7.610;2024-03-22T07:09:23;8.90;99.90
37340;DHT22;23223;51.006;7.610;2024-03-22T07:11:48;8.90;99.90
37340;DHT22;23223;51.006;7.610;2024-03-22T07:14:14;8.80;99.90
37340;DHT22;23223;51.006;7.610;2024-03-22T07:16:39;8.90;99.90
37340;DHT22;23223;51.006;7.610;2024-03-22T07:19:05;9.10;99.90
37340;DHT22;23223;51.006;7.610;2024-03-22T07:21:31;9.20;99.90
37340;DHT22;23223;51.006;7.610;2024-03-22T07:23:56;9.20;99.90
37340;DHT22;23223;51.006;7.610;2024-03-22T07:26:22;9.30;99.90
37340;DHT22;23223;51.006;7.610;2024-03-22T07:28:48;9.40;99.90
37340;DHT22;23223;51.006;7.610;2024-03-22T07:31:13;9.40;99.90
37340;DHT22;23223;51.006;7.610;2024-03-22T07:33:39;9.70;99.90
37340;DHT22;23223;51.006;7.610;2024-03-22T07:36:06;10.00;99.90
37340;DHT22;23223;51.006;7.610;2024-03-22T07:38:31;10.40;99.90
37340;DHT22;23223;51.006;7.610;2024-03-22T07:40:57;10.70;99.90
37340;DHT22;23223;51.006;7.610;2024-03-22T07:43:22;10.90;99.90
37340;DHT22;23223;51.006;7.610;2024-03-22T07:45:48;11.00;99.90
37340;DHT22;23223;51.006;7.610;2024-03-22T07:48:14;11.20;99.90
37340;DHT22;23223;51.006;7.610;2024-03-22T07:50:39;11.50;99.90
37340;DHT22;23223;51.006;7.610;2024-03-22T07:53:05;11.80;99.90
37340;DHT22;23223;51.006;7.610;2024-03-22T07:55:30;12.10;99.90
37340;DHT22;23223;51.006;7.610;2024-03-22T07:57:56;12.50;99.90
37340;DHT22;23223;51.006;7.610;2024-03-22T08:00:23;13.00;99.90
37340;DHT22;23223;51.006;7.610;2024-03-22T08:02:51;13.50;99.90
37340;DHT22;23223;51.006;7.610;2024-03-22T08:05:16;14.00;99.90
37340;DHT22;23223;51.006;7.610;2024-03-22T08:07:42;14.20;99.90
37340;DHT22;23223;51.006;7.610;2024-03-22T08:10:09;14.40;99.90
37340;DHT22;23223;51.006;7.610;2024-03-22T08:12:34;14.50;99.90
37340;DHT22;23223;51.006;7.610;2024-03-22T08:15:00;14.80;99.90
37340;DHT22;23223;51.006;7.610;2024-03-22T08:17:25;15.10;99.90
37340;DHT22;23223;51.006;7.610;2024-03-22T08:19:51;15.60;99.90
37340;DHT22;23223;51.006;7.610;2024-03-22T08:22:17;15.50;99.90
37340;DHT22;23223;51.006;7.610;2024-03-22T08:24:42;15.60;99.90
37340;DHT22;23223;51.006;7.610;2024-03-22T08:27:08;15.60;99.90
37340;DHT22;23223;51.006;7.610;2024-03-22T08:29:33;15.80;99.90
37340;DHT22;23223;51.006;7.610;2024-03-22T08:31:59;15.90;99.90
37340;DHT22;23223;51.006;7.610;2024-03-22T08:34:24;15.90;99.90
37340;DHT22;23223;51.006;7.610;2024-03-22T08:36:50;16.20;99.90
37340;DHT22;23223;51.006;7.610;2024-03-22T08:39:16;16.70;99.90
37340;DHT22;23223;51.006;7.610;2024-03-22T08:41:41;16.60;99.90
37340;DHT22;23223;51.006;7.610;2024-03-22T08:44:07;16.70;99.90
37340;DHT22;23223;51.006;7.610;2024-03-22T08:46:32;16.50;99.90
37340;DHT22;23223;51.006;7.610;2024-03-22T08:48:58;16.30;99.90
37340;DHT22;23223;51.006;7.610;2024-03-22T08:51:24;16.10;99.90
37340;DHT22;23223;51.006;7.610;2024-03-22T08:53:50;16.10;99.90
37340;DHT22;23223;51.006;7.610;2024-03-22T08:56:15;16.10;99.90
37340;DHT22;23223;51.006;7.610;2024-03-22T08:58:41;16.40;99.90
37340;DHT22;23223;51.006;7.610;2024-03-22T09:01:07;16.90;99.90
37340;DHT22;23223;51.006;7.610;2024-03-22T09:03:35;17.20;99.90
37340;DHT22;23223;51.006;7.610;2024-03-22T09:06:01;17.30;99.90
37340;DHT22;23223;51.006;7.610;2024-03-22T09:08:26;17.60;99.90
37340;DHT22;23223;51.006;7.610;2024-03-22T09:10:54;17.50;99.90
37340;DHT22;23223;51.006;7.610;2024-03-22T09:13:20;17.50;99.90
37340;DHT22;23223;51.006;7.610;2024-03-22T09:15:45;17.50;99.90
37340;DHT22;23223;51.006;7.610;2024-03-22T09:18:11;17.20;99.90
37340;DHT22;23223;51.006;7.610;2024-03-22T09:20:36;16.80;99.90
37340;DHT22;23223;51.006;7.610;2024-03-22T09:23:02;16.80;99.90
37340;DHT22;23223;51.006;7.610;2024-03-22T09:25:29;16.60;99.90
37340;DHT22;23223;51.006;7.610;2024-03-22T09:27:54;16.60;99.90
37340;DHT22;23223;51.006;7.610;2024-03-22T09:30:20;16.60;99.90
37340;DHT22;23223;51.006;7.610;2024-03-22T09:32:47;16.50;99.90
37340;DHT22;23223;51.006;7.610;2024-03-22T09:35:12;16.40;99.90
37340;DHT22;23223;51.006;7.610;2024-03-22T09:37:40;16.20;99.90
37340;DHT22;23223;51.006;7.610;2024-03-22T09:40:06;15.90;99.90
37340;DHT22;23223;51.006;7.610;2024-03-22T09:42:33;15.40;99.90
37340;DHT22;23223;51.006;7.610;2024-03-22T09:45:02;15.20;99.90
37340;DHT22;23223;51.006;7.610;2024-03-22T09:47:28;15.20;99.90
37340;DHT22;23223;51.006;7.610;2024-03-22T09:49:54;15.10;99.90
37340;DHT22;23223;51.006;7.610;2024-03-22T09:52:20;15.10;99.90
37340;DHT22;23223;51.006;7.610;2024-03-22T09:54:47;15.20;99.90
37340;DHT22;23223;51.006;7.610;2024-03-22T09:57:15;15.30;99.90
37340;DHT22;23223;51.006;7.610;2024-03-22T09:59:45;15.40;99.90
37340;DHT22;23223;51.006;7.610;2024-03-22T10:02:12;15.50;99.90
37340;DHT22;23223;51.006;7.610;2024-03-22T10:04:38;15.50;99.90
37340;DHT22;23223;51.006;7.610;2024-03-22T10:07:04;15.50;99.90
37340;DHT22;23223;51.006;7.610;2024-03-22T10:09:30;15.50;99.90
37340;DHT22;23223;51.006;7.610;2024-03-22T10:11:56;15.60;99.90
37340;DHT22;23223;51.006;7.610;2024-03-22T10:14:22;15.70;99.90
37340;DHT22;23223;51.006;7.610;2024-03-22T10:16:51;15.60;99.90
37340;DHT22;23223;51.006;7.610;2024-03-22T10:19:20;15.60;99.90
37340;DHT22;23223;51.006;7.610;2024-03-22T10:21:47;15.60;99.90
37340;DHT22;23223;51.006;7.610;2024-03-22T10:24:14;15.80;99.90
37340;DHT22;23223;51.006;7.610;2024-03-22T10:26:39;15.80;99.90
37340;DHT22;23223;51.006;7.610;2024-03-22T10:29:08;15.90;99.90
37340;DHT22;23223;51.006;7.610;2024-03-22T10:31:35;15.90;99.90
37340;DHT22;23223;51.006;7.610;2024-03-22T10:34:02;16.00;99.90
37340;DHT22;23223;51.006;7.610;2024-03-22T10:36:31;16.20;99.90
37340;DHT22;23223;51.006;7.610;2024-03-22T10:38:58;16.10;99.90
37340;DHT22;23223;51.006;7.610;2024-03-22T10:41:25;16.20;99.90
37340;DHT22;23223;51.006;7.610;2024-03-22T10:43:51;16.10;99.90
37340;DHT22;23223;51.006;7.610;2024-03-22T10:46:20;16.00;99.90
37340;DHT22;23223;51.006;7.610;2024-03-22T10:48:46;16.10;99.90
37340;DHT22;23223;51.006;7.610;2024-03-22T10:51:12;16.00;99.90
37340;DHT22;23223;51.006;7.610;2024-03-22T10:53:38;15.90;99.90
37340;DHT22;23223;51.006;7.610;2024-03-22T10:56:05;16.00;99.90
37340;DHT22;23223;51.006;7.610;2024-03-22T10:58:32;16.00;99.90
37340;DHT22;23223;51.006;7.610;2024-03-22T11:00:57;15.90;99.90
37340;DHT22;23223;51.006;7.610;2024-03-22T11:03:25;15.90;99.90
37340;DHT22;23223;51.006;7.610;2024-03-22T11:05:54;16.00;99.90
37340;DHT22;23223;51.006;7.610;2024-03-22T11:08:29;16.20;99.90
37340;DHT22;23223;51.006;7.610;2024-03-22T11:10:56;16.10;99.90
37340;DHT22;23223;51.006;7.610;2024-03-22T11:13:22;16.10;99.90
37340;DHT22;23223;51.006;7.610;2024-03-22T11:15:51;16.10;99.90
37340;DHT22;23223;51.006;7.610;2024-03-22T11:18:17;16.00;99.90
37340;DHT22;23223;51.006;7.610;2024-03-22T11:20:44;16.00;99.90
37340;DHT22;23223;51.006;7.610;2024-03-22T11:23:13;16.10;99.90
37340;DHT22;23223;51.006;7.610;2024-03-22T11:25:38;16.10;99.90
37340;DHT22;23223;51.006;7.610;2024-03-22T11:28:04;16.30;99.90
37340;DHT22;23223;51.006;7.610;2024-03-22T11:30:32;16.20;99.90
37340;DHT22;23223;51.006;7.610;2024-03-22T11:33:01;16.40;99.90
37340;DHT22;23223;51.006;7.610;2024-03-22T11:35:27;16.50;99.90
37340;DHT22;23223;51.006;7.610;2024-03-22T11:37:53;16.60;99.90
37340;DHT22;23223;51.006;7.610;2024-03-22T11:40:18;16.40;97.20
37340;DHT22;23223;51.006;7.610;2024-03-22T11:42:50;16.50;99.90
37340;DHT22;23223;51.006;7.610;2024-03-22T11:45:18;16.50;99.90
37340;DHT22;23223;51.006;7.610;2024-03-22T11:47:45;16.60;99.90
37340;DHT22;23223;51.006;7.610;2024-03-22T11:50:15;16.70;99.90
37340;DHT22;23223;51.006;7.610;2024-03-22T11:52:41;16.90;96.60
37340;DHT22;23223;51.006;7.610;2024-03-22T11:55:07;17.00;99.90
37340;DHT22;23223;51.006;7.610;2024-03-22T11:57:33;17.10;98.70
37340;DHT22;23223;51.006;7.610;2024-03-22T12:00:00;17.20;95.30
37340;DHT22;23223;51.006;7.610;2024-03-22T12:02:26;17.20;96.30
37340;DHT22;23223;51.006;7.610;2024-03-22T12:04:51;17.30;93.60
37340;DHT22;23223;51.006;7.610;2024-03-22T12:07:18;17.30;94.40
37340;DHT22;23223;51.006;7.610;2024-03-22T12:09:44;17.30;88.90
37340;DHT22;23223;51.006;7.610;2024-03-22T12:12:12;17.40;94.00
37340;DHT22;23223;51.006;7.610;2024-03-22T12:14:39;17.50;75.10
37340;DHT22;23223;51.006;7.610;2024-03-22T12:17:06;17.50;93.30
37340;DHT22;23223;51.006;7.610;2024-03-22T12:19:31;17.50;75.70
37340;DHT22;23223;51.006;7.610;2024-03-22T12:21:57;17.50;75.90
37340;DHT22;23223;51.006;7.610;2024-03-22T12:24:23;17.50;91.90
37340;DHT22;23223;51.006;7.610;2024-03-22T12:26:50;17.50;75.80
37340;DHT22;23223;51.006;7.610;2024-03-22T12:29:16;17.40;65.90
37340;DHT22;23223;51.006;7.610;2024-03-22T12:31:43;17.40;80.70
37340;DHT22;23223;51.006;7.610;2024-03-22T12:34:08;17.30;90.10
37340;DHT22;23223;51.006;7.610;2024-03-22T12:36:34;17.10;69.10
37340;DHT22;23223;51.006;7.610;2024-03-22T12:39:00;17.00;54.70
37340;DHT22;23223;51.006;7.610;2024-03-22T12:41:27;17.00;68.90
37340;DHT22;23223;51.006;7.610;2024-03-22T12:43:52;17.10;88.30
37340;DHT22;23223;51.006;7.610;2024-03-22T12:46:18;17.30;58.30
37340;DHT22;23223;51.006;7.610;2024-03-22T12:48:43;17.40;71.40
37340;DHT22;23223;51.006;7.610;2024-03-22T12:51:09;17.60;64.40
37340;DHT22;23223;51.006;7.610;2024-03-22T12:53:35;17.90;44.90
37340;DHT22;23223;51.006;7.610;2024-03-22T12:56:00;17.80;36.80
37340;DHT22;23223;51.006;7.610;2024-03-22T12:58:26;17.80;43.80
37340;DHT22;23223;51.006;7.610;2024-03-22T13:00:52;17.80;51.60
37340;DHT22;23223;51.006;7.610;2024-03-22T13:03:17;17.80;29.60
37340;DHT22;23223;51.006;7.610;2024-03-22T13:05:43;17.60;30.10
37340;DHT22;23223;51.006;7.610;2024-03-22T13:08:08;17.50;47.40
37340;DHT22;23223;51.006;7.610;2024-03-22T13:10:34;17.40;48.40
37340;DHT22;23223;51.006;7.610;2024-03-22T13:13:00;17.30;65.20
37340;DHT22;23223;51.006;7.610;2024-03-22T13:15:26;17.30;41.80
37340;DHT22;23223;51.006;7.610;2024-03-22T13:17:52;17.30;51.80
37340;DHT22;23223;51.006;7.610;2024-03-22T13:20:21;17.20;33.60
37340;DHT22;23223;51.006;7.610;2024-03-22T13:22:47;17.20;50.50
37340;DHT22;23223;51.006;7.610;2024-03-22T13:25:12;17.20;50.70
37340;DHT22;23223;51.006;7.610;2024-03-22T13:27:38;16.90;29.60
37340;DHT22;23223;51.006;7.610;2024-03-22T13:30:05;16.70;31.10
37340;DHT22;23223;51.006;7.610;2024-03-22T13:32:31;16.70;50.40
37340;DHT22;23223;51.006;7.610;2024-03-22T13:34:57;16.60;28.10
37340;DHT22;23223;51.006;7.610;2024-03-22T13:37:22;16.70;37.40
37340;DHT22;23223;51.006;7.610;2024-03-22T13:39:49;16.70;45.10
37340;DHT22;23223;51.006;7.610;2024-03-22T13:42:15;16.70;46.10
37340;DHT22;23223;51.006;7.610;2024-03-22T13:44:41;16.70;30.40
37340;DHT22;23223;51.006;7.610;2024-03-22T13:47:07;17.20;36.00
37340;DHT22;23223;51.006;7.610;2024-03-22T13:49:33;17.80;29.70
37340;DHT22;23223;51.006;7.610;2024-03-22T13:51:59;18.40;20.20
37340;DHT22;23223;51.006;7.610;2024-03-22T13:54:24;19.00;15.30
37340;DHT22;23223;51.006;7.610;2024-03-22T13:56:50;19.60;3.10
37340;DHT22;23223;51.006;7.610;2024-03-22T13:59:16;20.30;1.00
37340;DHT22;23223;51.006;7.610;2024-03-22T14:01:41;20.30;1.00
37340;DHT22;23223;51.006;7.610;2024-03-22T14:04:10;19.80;1.00
37340;DHT22;23223;51.006;7.610;2024-03-22T14:06:37;19.40;1.00
37340;DHT22;23223;51.006;7.610;2024-03-22T14:09:03;19.10;1.00
37340;DHT22;23223;51.006;7.610;2024-03-22T14:11:30;19.00;5.90
37340;DHT22;23223;51.006;7.610;2024-03-22T14:13:57;19.00;1.00
37340;DHT22;23223;51.006;7.610;2024-03-22T14:16:22;18.90;1.00
37340;DHT22;23223;51.006;7.610;2024-03-22T14:18:48;18.90;1.00
37340;DHT22;23223;51.006;7.610;2024-03-22T14:21:15;18.90;1.00
37340;DHT22;23223;51.006;7.610;2024-03-22T14:23:45;18.90;1.00
37340;DHT22;23223;51.006;7.610;2024-03-22T14:26:11;19.20;1.00
37340;DHT22;23223;51.006;7.610;2024-03-22T14:28:37;19.40;1.00
37340;DHT22;23223;51.006;7.610;2024-03-22T14:31:08;19.40;1.00
37340;DHT22;23223;51.006;7.610;2024-03-22T14:33:35;19.60;1.00
37340;DHT22;23223;51.006;7.610;2024-03-22T14:36:01;19.90;1.00
37340;DHT22;23223;51.006;7.610;2024-03-22T14:38:27;20.20;1.00
37340;DHT22;23223;51.006;7.610;2024-03-22T14:40:54;20.20;1.00
37340;DHT22;23223;51.006;7.610;2024-03-22T14:43:23;20.00;1.00
37340;DHT22;23223;51.006;7.610;2024-03-22T14:45:50;19.90;1.00
37340;DHT22;23223;51.006;7.610;2024-03-22T14:48:17;19.50;1.00
37340;DHT22;23223;51.006;7.610;2024-03-22T14:50:43;19.10;1.00
37340;DHT22;23223;51.006;7.610;2024-03-22T14:53:08;18.80;1.00
37340;DHT22;23223;51.006;7.610;2024-03-22T14:55:34;18.50;1.00
37340;DHT22;23223;51.006;7.610;2024-03-22T14:58:02;18.20;1.00
37340;DHT22;23223;51.006;7.610;2024-03-22T15:00:27;18.00;1.00
37340;DHT22;23223;51.006;7.610;2024-03-22T15:02:54;17.80;1.00
37340;DHT22;23223;51.006;7.610;2024-03-22T15:05:19;17.60;1.00
37340;DHT22;23223;51.006;7.610;2024-03-22T15:07:45;17.40;1.00
37340;DHT22;23223;51.006;7.610;2024-03-22T15:10:11;17.20;1.00
37340;DHT22;23223;51.006;7.610;2024-03-22T15:12:36;17.00;1.00
37340;DHT22;23223;51.006;7.610;2024-03-22T15:15:03;17.00;1.00
37340;DHT22;23223;51.006;7.610;2024-03-22T15:17:29;17.00;1.00
37340;DHT22;23223;51.006;7.610;2024-03-22T15:19:55;17.20;1.00
37340;DHT22;23223;51.006;7.610;2024-03-22T15:22:20;17.60;1.00
37340;DHT22;23223;51.006;7.610;2024-03-22T15:24:48;18.00;1.00
37340;DHT22;23223;51.006;7.610;2024-03-22T15:27:14;18.20;1.00
37340;DHT22;23223;51.006;7.610;2024-03-22T15:29:40;18.20;1.00
37340;DHT22;23223;51.006;7.610;2024-03-22T15:32:06;17.90;1.00